createdAt,value
2022-09-15T00:00:49.292Z,92.80
2022-09-15T00:03:16.098Z,92.80
2022-09-15T00:05:42.845Z,92.80
2022-09-15T00:08:09.508Z,93.00
2022-09-15T00:10:36.299Z,92.80
2022-09-15T00:13:03.084Z,93.20
2022-09-15T00:15:29.776Z,93.00
2022-09-15T00:17:56.484Z,93.20
2022-09-15T00:20:23.210Z,93.00
2022-09-15T00:22:50.006Z,93.10
2022-09-15T00:25:16.881Z,93.00
2022-09-15T00:27:43.929Z,93.30
2022-09-15T00:30:10.815Z,93.20
2022-09-15T00:32:37.609Z,93.60
2022-09-15T00:35:04.871Z,94.60
2022-09-15T00:37:31.559Z,94.60
2022-09-15T00:39:58.393Z,94.40
2022-09-15T00:42:25.170Z,94.20
2022-09-15T00:45:02.042Z,94.20
2022-09-15T00:47:34.007Z,94.10
2022-09-15T00:50:03.458Z,94.30
2022-09-15T00:52:42.754Z,94.10
2022-09-15T00:55:11.903Z,94.20
2022-09-15T00:57:45.831Z,94.00
2022-09-15T01:00:14.247Z,94.40
2022-09-15T01:02:42.382Z,94.20
2022-09-15T01:05:10.937Z,94.30
2022-09-15T01:07:43.551Z,94.50
2022-09-15T01:10:13.606Z,94.60
2022-09-15T01:12:40.617Z,94.70
2022-09-15T01:15:07.706Z,95.30
2022-09-15T01:17:59.624Z,95.80
2022-09-15T01:20:39.153Z,96.10
2022-09-15T01:23:08.654Z,96.90
2022-09-15T01:25:38.321Z,97.50
2022-09-15T01:28:13.943Z,97.50
2022-09-15T01:30:49.937Z,97.30
2022-09-15T01:33:16.615Z,97.00
2022-09-15T01:35:43.244Z,96.80
2022-09-15T01:38:20.941Z,96.50
2022-09-15T01:40:52.254Z,96.20
2022-09-15T01:43:20.534Z,96.10
2022-09-15T01:45:48.328Z,96.40
2022-09-15T01:48:16.762Z,96.20
2022-09-15T01:50:46.224Z,96.10
2022-09-15T01:53:15.863Z,96.00
2022-09-15T01:55:54.144Z,96.60
2022-09-15T01:58:20.912Z,96.40
2022-09-15T02:01:31.329Z,96.60
2022-09-15T02:04:02.092Z,96.50
2022-09-15T02:06:40.686Z,96.30
2022-09-15T02:09:27.632Z,96.20
2022-09-15T02:11:58.461Z,96.60
2022-09-15T02:14:36.273Z,96.70
2022-09-15T02:17:05.497Z,96.50
2022-09-15T02:19:39.024Z,96.60
2022-09-15T02:22:10.662Z,96.50
2022-09-15T02:24:42.297Z,96.50
2022-09-15T02:27:10.985Z,96.60
2022-09-15T02:29:38.769Z,97.10
2022-09-15T02:32:07.541Z,97.60
2022-09-15T02:34:40.362Z,97.70
2022-09-15T02:37:08.356Z,97.80
2022-09-15T02:39:37.207Z,97.50
2022-09-15T02:42:04.083Z,97.30
2022-09-15T02:44:31.126Z,97.10
2022-09-15T02:46:58.739Z,96.90
2022-09-15T02:49:25.429Z,96.80
2022-09-15T02:51:52.150Z,96.80
2022-09-15T02:54:19.011Z,97.20
2022-09-15T02:56:47.098Z,96.90
2022-09-15T02:59:14.124Z,97.20
2022-09-15T03:01:40.901Z,96.90
2022-09-15T03:04:07.641Z,96.90
2022-09-15T03:06:35.192Z,97.00
2022-09-15T03:09:04.141Z,96.90
2022-09-15T03:11:30.963Z,96.80
2022-09-15T03:13:58.750Z,96.80
2022-09-15T03:16:25.947Z,97.30
2022-09-15T03:18:54.378Z,97.60
2022-09-15T03:21:21.611Z,97.40
2022-09-15T03:23:48.279Z,97.20
2022-09-15T03:26:14.963Z,97.10
2022-09-15T03:28:42.011Z,97.30
2022-09-15T03:31:09.408Z,98.00
2022-09-15T03:33:36.643Z,97.80
2022-09-15T03:36:03.653Z,98.40
2022-09-15T03:38:30.513Z,98.30
2022-09-15T03:41:01.570Z,98.30
2022-09-15T03:43:29.279Z,98.00
2022-09-15T03:45:56.820Z,98.40
2022-09-15T03:48:24.293Z,98.80
2022-09-15T03:50:51.152Z,99.00
2022-09-15T03:53:18.351Z,99.60
2022-09-15T03:55:45.521Z,99.90
2022-09-15T03:58:12.844Z,99.90
2022-09-15T04:00:40.781Z,99.90
2022-09-15T04:03:07.600Z,99.90
2022-09-15T04:05:34.909Z,99.90
2022-09-15T04:08:01.745Z,99.90
2022-09-15T04:10:29.308Z,99.90
2022-09-15T04:12:56.062Z,99.90
2022-09-15T04:15:23.033Z,99.90
2022-09-15T04:17:49.730Z,99.60
2022-09-15T04:20:17.224Z,99.30
2022-09-15T04:22:44.646Z,99.10
2022-09-15T04:25:12.093Z,99.20
2022-09-15T04:27:39.185Z,99.30
2022-09-15T04:30:06.723Z,99.40
2022-09-15T04:32:33.574Z,99.30
2022-09-15T04:35:00.345Z,99.40
2022-09-15T04:37:27.025Z,98.90
2022-09-15T04:39:53.960Z,99.10
2022-09-15T04:42:21.737Z,99.00
2022-09-15T04:44:48.396Z,99.20
2022-09-15T04:47:15.284Z,99.90
2022-09-15T04:49:42.034Z,99.90
2022-09-15T04:52:10.119Z,99.90
2022-09-15T04:54:36.919Z,99.90
2022-09-15T04:57:03.756Z,99.90
2022-09-15T04:59:30.470Z,99.90
2022-09-15T05:01:57.311Z,99.90
2022-09-15T05:04:24.166Z,99.90
2022-09-15T05:06:50.907Z,99.90
2022-09-15T05:09:17.643Z,99.90
2022-09-15T05:11:44.361Z,99.90
2022-09-15T05:14:11.341Z,99.90
2022-09-15T05:16:38.328Z,99.90
2022-09-15T05:19:05.120Z,99.90
2022-09-15T05:21:32.473Z,99.90
2022-09-15T05:23:59.146Z,99.90
2022-09-15T05:26:27.101Z,99.90
2022-09-15T05:28:53.992Z,99.90
2022-09-15T05:31:28.013Z,99.90
2022-09-15T05:33:54.860Z,99.90
2022-09-15T05:36:25.004Z,99.90
2022-09-15T05:38:52.899Z,99.90
2022-09-15T05:41:20.840Z,99.90
2022-09-15T05:43:49.150Z,99.90
2022-09-15T05:46:16.432Z,99.90
2022-09-15T05:48:43.166Z,99.90
2022-09-15T05:51:09.846Z,99.90
2022-09-15T05:53:36.910Z,99.90
2022-09-15T05:56:07.749Z,99.90
2022-09-15T05:58:34.712Z,99.90
2022-09-15T06:01:08.651Z,99.80
2022-09-15T06:03:35.845Z,99.70
2022-09-15T06:06:03.997Z,99.90
2022-09-15T06:08:31.917Z,99.90
2022-09-15T06:11:02.857Z,99.90
2022-09-15T06:13:29.541Z,99.80
2022-09-15T06:16:00.560Z,99.70
2022-09-15T06:18:27.293Z,99.80
2022-09-15T06:20:54.034Z,99.90
2022-09-15T06:23:20.752Z,99.90
2022-09-15T06:25:47.478Z,99.90
2022-09-15T06:28:14.177Z,99.90
2022-09-15T06:30:40.890Z,99.90
2022-09-15T06:33:07.563Z,99.90
2022-09-15T06:35:34.228Z,99.90
2022-09-15T06:38:01.058Z,99.90
2022-09-15T06:40:27.780Z,99.90
2022-09-15T06:42:55.888Z,99.90
2022-09-15T06:45:22.765Z,99.90
2022-09-15T06:48:07.376Z,99.90
2022-09-15T06:50:38.232Z,99.90
2022-09-15T06:53:04.878Z,99.90
2022-09-15T06:55:32.034Z,99.90
2022-09-15T06:58:00.035Z,99.90
2022-09-15T07:00:29.333Z,99.90
2022-09-15T07:02:56.140Z,99.90
2022-09-15T07:05:25.628Z,99.90
2022-09-15T07:07:52.544Z,99.90
2022-09-15T07:10:19.337Z,99.00
2022-09-15T07:12:46.347Z,98.60
2022-09-15T07:15:13.144Z,97.00
2022-09-15T07:17:39.822Z,97.10
2022-09-15T07:20:06.666Z,96.50
2022-09-15T07:22:33.380Z,95.10
2022-09-15T07:25:00.042Z,94.80
2022-09-15T07:27:31.543Z,94.20
2022-09-15T07:29:59.181Z,92.70
2022-09-15T07:32:26.059Z,91.50
2022-09-15T07:34:55.498Z,91.90
2022-09-15T07:37:24.849Z,92.20
2022-09-15T07:39:51.551Z,86.60
2022-09-15T07:42:18.626Z,86.90
2022-09-15T07:44:45.331Z,88.90
2022-09-15T07:47:12.016Z,88.90
2022-09-15T07:49:38.782Z,88.30
2022-09-15T07:52:05.492Z,89.30
2022-09-15T07:54:32.157Z,87.00
2022-09-15T07:56:58.865Z,84.60
2022-09-15T07:59:25.760Z,82.90
2022-09-15T08:01:52.521Z,81.30
2022-09-15T08:04:19.288Z,82.10
2022-09-15T08:06:46.022Z,75.50
2022-09-15T08:09:17.686Z,70.50
2022-09-15T08:11:44.418Z,71.40
2022-09-15T08:14:11.087Z,74.40
2022-09-15T08:16:38.537Z,75.40
2022-09-15T08:19:05.452Z,75.10
2022-09-15T08:21:32.177Z,75.00
2022-09-15T08:23:59.746Z,73.50
2022-09-15T08:26:27.485Z,73.70
2022-09-15T08:28:54.302Z,72.50
2022-09-15T08:31:21.369Z,72.40
2022-09-15T08:33:52.431Z,72.40
2022-09-15T08:36:19.182Z,72.20
2022-09-15T08:38:46.565Z,72.00
2022-09-15T08:41:32.023Z,71.60
2022-09-15T08:44:02.945Z,71.10
2022-09-15T08:46:55.986Z,69.60
2022-09-15T08:49:47.419Z,67.80
2022-09-15T08:52:17.130Z,70.10
2022-09-15T08:54:43.861Z,69.80
2022-09-15T08:57:14.234Z,69.10
2022-09-15T08:59:40.981Z,66.60
2022-09-15T09:02:13.531Z,68.20
2022-09-15T09:04:49.634Z,68.80
2022-09-15T09:07:28.253Z,67.90
2022-09-15T09:09:58.155Z,67.10
2022-09-15T09:12:45.044Z,66.90
2022-09-15T09:15:16.475Z,66.60
2022-09-15T09:17:54.987Z,67.70
2022-09-15T09:20:24.743Z,69.20
2022-09-15T09:22:53.746Z,67.80
2022-09-15T09:25:27.634Z,67.60
2022-09-15T09:27:56.493Z,67.10
2022-09-15T09:30:23.840Z,65.50
2022-09-15T09:33:09.100Z,66.50
2022-09-15T09:35:43.770Z,68.10
2022-09-15T09:38:11.510Z,68.70
2022-09-15T09:40:41.165Z,66.30
2022-09-15T09:43:08.372Z,66.80
2022-09-15T09:45:35.311Z,64.40
2022-09-15T09:48:18.117Z,65.30
2022-09-15T09:50:45.124Z,64.30
2022-09-15T09:53:18.130Z,64.70
2022-09-15T09:55:45.950Z,65.10
2022-09-15T09:58:14.564Z,64.20
2022-09-15T10:00:41.583Z,63.80
2022-09-15T10:03:19.393Z,64.60
2022-09-15T10:05:59.626Z,63.40
2022-09-15T10:08:26.345Z,64.50
2022-09-15T10:10:54.149Z,63.60
2022-09-15T10:13:21.488Z,63.00
2022-09-15T10:16:02.378Z,62.00
2022-09-15T10:18:42.571Z,61.10
2022-09-15T10:21:09.890Z,61.10
2022-09-15T10:23:36.649Z,61.30
2022-09-15T10:26:15.645Z,60.20
2022-09-15T10:29:01.041Z,60.30
2022-09-15T10:31:30.692Z,58.80
2022-09-15T10:33:59.013Z,60.80
2022-09-15T10:36:30.229Z,59.90
2022-09-15T10:39:21.616Z,60.30
2022-09-15T10:41:57.006Z,59.50
2022-09-15T10:44:32.471Z,60.10
2022-09-15T10:47:05.261Z,59.50
2022-09-15T10:49:51.117Z,58.70
2022-09-15T10:52:36.539Z,57.80
2022-09-15T10:55:32.074Z,57.40
2022-09-15T10:58:19.514Z,56.40
2022-09-15T11:00:53.106Z,55.30
2022-09-15T11:03:27.687Z,54.90
2022-09-15T11:06:03.732Z,54.50
2022-09-15T11:08:33.599Z,54.90
2022-09-15T11:11:00.662Z,54.60
2022-09-15T11:13:31.104Z,54.90
2022-09-15T11:16:29.200Z,54.40
2022-09-15T11:18:56.320Z,53.10
2022-09-15T11:21:27.719Z,55.20
2022-09-15T11:23:54.365Z,53.40
2022-09-15T11:26:28.706Z,52.70
2022-09-15T11:29:15.627Z,54.00
2022-09-15T11:31:44.152Z,53.10
2022-09-15T11:34:11.514Z,53.30
2022-09-15T11:36:49.406Z,53.60
2022-09-15T11:39:36.339Z,52.30
2022-09-15T11:42:12.386Z,51.30
2022-09-15T11:44:43.517Z,51.00
2022-09-15T11:47:10.467Z,50.90
2022-09-15T11:49:37.149Z,50.40
2022-09-15T11:52:11.331Z,48.30
2022-09-15T11:54:43.064Z,49.10
2022-09-15T11:57:21.285Z,50.00
2022-09-15T11:59:59.052Z,49.90
2022-09-15T12:02:46.083Z,50.40
2022-09-15T12:05:19.686Z,50.50
2022-09-15T12:07:58.323Z,51.70
2022-09-15T12:10:37.600Z,50.10
2022-09-15T12:13:05.166Z,50.50
2022-09-15T12:15:32.096Z,51.30
2022-09-15T12:18:06.731Z,50.50
2022-09-15T12:21:15.017Z,50.80
2022-09-15T12:23:45.750Z,48.40
2022-09-15T12:26:17.676Z,50.30
2022-09-15T12:28:51.182Z,50.60
2022-09-15T12:31:25.778Z,49.80
2022-09-15T12:33:57.532Z,49.90
2022-09-15T12:36:30.451Z,49.40
2022-09-15T12:38:58.885Z,48.90
2022-09-15T12:41:25.659Z,49.60
2022-09-15T12:43:54.306Z,51.00
2022-09-15T12:46:21.456Z,48.40
2022-09-15T12:48:49.233Z,46.90
2022-09-15T12:51:24.050Z,46.40
2022-09-15T12:53:54.081Z,45.30
2022-09-15T12:56:26.764Z,47.00
2022-09-15T12:58:54.098Z,47.00
2022-09-15T13:01:27.245Z,46.20
2022-09-15T13:03:55.225Z,45.10
2022-09-15T13:06:23.036Z,45.60
2022-09-15T13:08:52.061Z,46.00
2022-09-15T13:11:25.509Z,43.90
2022-09-15T13:14:04.193Z,44.60
2022-09-15T13:16:33.071Z,43.90
2022-09-15T13:19:16.936Z,43.10
2022-09-15T13:21:46.120Z,43.30
2022-09-15T13:24:20.988Z,43.80
2022-09-15T13:26:56.916Z,41.00
2022-09-15T13:29:26.149Z,41.60
2022-09-15T13:32:21.753Z,40.00
2022-09-15T13:35:17.296Z,40.50
2022-09-15T13:38:14.002Z,39.60
2022-09-15T13:41:18.549Z,41.20
2022-09-15T13:44:21.247Z,38.70
2022-09-15T13:47:02.970Z,40.30
2022-09-15T13:49:39.884Z,41.90
2022-09-15T13:52:19.339Z,39.90
2022-09-15T13:55:21.783Z,40.50
2022-09-15T14:01:15.446Z,41.70
2022-09-15T14:04:05.258Z,41.70
2022-09-15T14:06:37.846Z,40.80
2022-09-15T14:09:47.662Z,39.70
2022-09-15T14:12:16.570Z,37.60
2022-09-15T14:14:51.469Z,38.10
2022-09-15T14:17:27.282Z,40.00
2022-09-15T14:19:58.864Z,40.70
2022-09-15T14:22:32.064Z,40.20
2022-09-15T14:25:05.913Z,40.90
2022-09-15T14:27:35.246Z,40.80
2022-09-15T14:30:08.274Z,40.80
2022-09-15T14:32:38.683Z,40.60
2022-09-15T14:35:16.016Z,39.70
2022-09-15T14:38:03.969Z,39.80
2022-09-15T14:40:31.983Z,41.40
2022-09-15T14:42:58.757Z,40.80
2022-09-15T14:45:56.552Z,41.90
2022-09-15T14:48:26.879Z,41.90
2022-09-15T14:51:01.977Z,41.60
2022-09-15T14:53:30.675Z,41.90
2022-09-15T14:56:07.066Z,41.90
2022-09-15T14:58:41.778Z,41.60
2022-09-15T15:01:17.250Z,42.90
2022-09-15T15:03:49.913Z,41.00
2022-09-15T15:06:29.954Z,40.80
2022-09-15T15:09:05.370Z,41.20
2022-09-15T15:11:33.883Z,42.30
2022-09-15T15:14:00.713Z,41.90
2022-09-15T15:16:28.641Z,42.60
2022-09-15T15:18:57.303Z,43.70
2022-09-15T15:21:44.324Z,46.10
2022-09-15T15:24:10.998Z,46.50
2022-09-15T15:26:38.656Z,46.00
2022-09-15T15:29:23.879Z,45.80
2022-09-15T15:31:50.682Z,45.30
2022-09-15T15:34:23.136Z,44.60
2022-09-15T15:36:49.844Z,45.30
2022-09-15T15:39:27.104Z,47.00
2022-09-15T15:42:02.130Z,47.40
2022-09-15T15:44:29.593Z,46.70
2022-09-15T15:47:03.725Z,46.60
2022-09-15T15:49:32.443Z,46.90
2022-09-15T15:52:00.763Z,45.10
2022-09-15T15:54:28.188Z,45.50
2022-09-15T15:56:54.965Z,46.00
2022-09-15T15:59:21.707Z,45.70
2022-09-15T16:01:50.817Z,46.20
2022-09-15T16:04:17.703Z,46.20
2022-09-15T16:06:45.042Z,46.00
2022-09-15T16:09:13.839Z,45.90
2022-09-15T16:11:40.959Z,45.90
2022-09-15T16:14:09.731Z,46.00
2022-09-15T16:16:36.569Z,45.30
2022-09-15T16:19:03.312Z,45.20
2022-09-15T16:21:36.792Z,45.60
2022-09-15T16:24:04.504Z,46.00
2022-09-15T16:26:31.463Z,45.30
2022-09-15T16:28:58.513Z,45.50
2022-09-15T16:31:25.243Z,46.00
2022-09-15T16:33:51.931Z,45.50
2022-09-15T16:36:18.759Z,46.30
2022-09-15T16:38:45.500Z,45.50
2022-09-15T16:41:12.442Z,45.30
2022-09-15T16:43:39.299Z,45.40
2022-09-15T16:46:06.529Z,45.60
2022-09-15T16:48:34.216Z,45.90
2022-09-15T16:53:48.091Z,46.60
2022-09-15T16:56:15.602Z,47.00
2022-09-15T16:58:42.726Z,47.90
2022-09-15T17:01:19.589Z,48.40
2022-09-15T17:03:46.996Z,49.30
2022-09-15T17:06:14.951Z,49.90
2022-09-15T17:08:41.767Z,50.20
2022-09-15T17:11:16.128Z,50.90
2022-09-15T17:13:43.836Z,51.80
2022-09-15T17:16:19.201Z,52.50
2022-09-15T17:18:46.692Z,53.10
2022-09-15T17:21:13.859Z,54.00
2022-09-15T17:23:42.906Z,54.20
2022-09-15T17:26:11.506Z,54.60
2022-09-15T17:28:38.349Z,54.80
2022-09-15T17:31:13.911Z,55.30
2022-09-15T17:33:40.794Z,56.40
2022-09-15T17:36:08.065Z,57.10
2022-09-15T17:38:35.011Z,56.50
2022-09-15T17:41:01.748Z,56.40
2022-09-15T17:43:29.416Z,56.40
2022-09-15T17:45:56.413Z,56.30
2022-09-15T17:48:23.523Z,56.30
2022-09-15T17:50:50.495Z,56.80
2022-09-15T17:53:21.156Z,58.00
2022-09-15T17:55:48.361Z,58.30
2022-09-15T17:58:15.171Z,58.80
2022-09-15T18:00:42.647Z,58.70
2022-09-15T18:03:23.337Z,59.10
2022-09-15T18:05:50.785Z,59.50
2022-09-15T18:08:18.526Z,60.60
2022-09-15T18:10:45.578Z,61.20
2022-09-15T18:13:20.343Z,62.20
2022-09-15T18:15:48.914Z,62.20
2022-09-15T18:18:25.722Z,63.10
2022-09-15T18:20:53.670Z,63.60
2022-09-15T18:23:21.314Z,63.70
2022-09-15T18:25:48.351Z,63.80
2022-09-15T18:28:15.749Z,65.10
2022-09-15T18:30:44.049Z,64.80
2022-09-15T18:33:15.126Z,63.20
2022-09-15T18:35:42.509Z,63.10
2022-09-15T18:38:09.507Z,63.10
2022-09-15T18:40:36.777Z,64.50
2022-09-15T18:43:03.803Z,64.90
2022-09-15T18:45:30.472Z,66.40
2022-09-15T18:47:57.216Z,68.20
2022-09-15T18:50:25.235Z,67.80
2022-09-15T18:52:52.344Z,69.00
2022-09-15T18:55:19.763Z,69.10
2022-09-15T18:57:47.281Z,69.90
2022-09-15T19:00:15.644Z,70.70
2022-09-15T19:02:42.778Z,71.00
2022-09-15T19:05:15.332Z,70.60
2022-09-15T19:07:42.709Z,69.20
2022-09-15T19:10:11.021Z,68.10
2022-09-15T19:12:38.235Z,66.50
2022-09-15T19:15:10.600Z,65.10
2022-09-15T19:17:38.327Z,65.20
2022-09-15T19:20:06.821Z,65.10
2022-09-15T19:22:33.863Z,65.00
2022-09-15T19:25:00.813Z,65.80
2022-09-15T19:27:27.893Z,67.10
2022-09-15T19:29:54.619Z,67.70
2022-09-15T19:32:22.247Z,66.70
2022-09-15T19:34:49.353Z,64.50
2022-09-15T19:37:18.882Z,65.00
2022-09-15T19:39:46.566Z,64.50
2022-09-15T19:44:41.521Z,59.50
2022-09-15T19:47:08.636Z,59.60
2022-09-15T19:49:35.670Z,59.70
2022-09-15T19:52:02.402Z,57.70
2022-09-15T19:54:29.896Z,50.10
2022-09-15T19:56:57.632Z,48.60
2022-09-15T19:59:30.229Z,45.30
2022-09-15T20:01:58.011Z,44.90
2022-09-15T20:04:24.843Z,42.40
2022-09-15T20:06:51.878Z,41.40
2022-09-15T20:09:18.907Z,40.90
2022-09-15T20:11:45.784Z,39.80
2022-09-15T20:14:12.478Z,39.20
2022-09-15T20:16:39.464Z,39.00
2022-09-15T20:19:06.611Z,39.10
2022-09-15T20:21:51.096Z,38.50
2022-09-15T20:24:19.274Z,38.90
2022-09-15T20:26:46.130Z,38.60
2022-09-15T20:29:13.255Z,38.30
2022-09-15T20:31:40.374Z,38.00
2022-09-15T20:34:07.064Z,37.50
2022-09-15T20:36:35.515Z,37.30
2022-09-15T20:39:03.369Z,37.40
2022-09-15T20:41:31.884Z,37.20
2022-09-15T20:43:58.679Z,36.60
2022-09-15T20:46:25.544Z,36.70
2022-09-15T20:48:52.601Z,36.70
2022-09-15T20:51:20.753Z,36.70
2022-09-15T20:53:48.548Z,36.70
2022-09-15T20:56:15.605Z,36.50
2022-09-15T20:58:42.774Z,36.20
2022-09-15T21:01:10.989Z,36.00
2022-09-15T21:03:39.007Z,36.50
2022-09-15T21:06:10.195Z,36.00
2022-09-15T21:08:36.991Z,36.20
2022-09-15T21:11:05.217Z,35.80
2022-09-15T21:13:33.725Z,36.00
2022-09-15T21:16:02.375Z,36.00
2022-09-15T21:18:32.620Z,35.90
2022-09-15T21:21:07.350Z,36.20
2022-09-15T21:23:37.855Z,36.40
2022-09-15T21:26:06.258Z,36.10
2022-09-15T21:28:33.204Z,36.30
2022-09-15T21:31:13.467Z,36.70
2022-09-15T21:33:40.512Z,36.80
2022-09-15T21:36:09.486Z,36.60
2022-09-15T21:38:37.430Z,36.50
2022-09-15T21:41:06.162Z,36.70
2022-09-15T21:43:35.879Z,37.00
2022-09-15T21:46:04.762Z,37.00
2022-09-15T21:48:32.327Z,36.80
2022-09-15T21:50:59.276Z,37.10
2022-09-15T21:53:26.432Z,37.20
2022-09-15T21:55:53.289Z,37.20
2022-09-15T21:58:20.910Z,37.00
2022-09-15T22:00:48.687Z,37.10
2022-09-15T22:03:16.244Z,37.10
2022-09-15T22:05:43.962Z,37.00
2022-09-15T22:08:11.336Z,36.90
2022-09-15T22:10:38.129Z,37.30
2022-09-15T22:13:06.155Z,37.40
2022-09-15T22:15:33.378Z,37.90
2022-09-15T22:18:00.115Z,37.70
2022-09-15T22:20:28.036Z,37.50
2022-09-15T22:23:01.380Z,37.50
2022-09-15T22:25:28.844Z,37.50
2022-09-15T22:27:55.551Z,37.60
2022-09-15T22:30:22.327Z,37.90
2022-09-15T22:32:49.058Z,38.30
2022-09-15T22:35:17.340Z,38.60
2022-09-15T22:37:44.158Z,38.10
2022-09-15T22:40:11.977Z,38.50
2022-09-15T22:42:38.887Z,38.60
2022-09-15T22:45:05.953Z,38.20
2022-09-15T22:47:33.874Z,38.00
2022-09-15T22:50:00.509Z,38.00
2022-09-15T22:52:27.171Z,38.20
2022-09-15T22:54:53.864Z,38.20
2022-09-15T22:57:20.562Z,38.20
2022-09-15T22:59:47.233Z,38.30
2022-09-15T23:02:13.935Z,38.60
2022-09-15T23:04:40.613Z,38.50
2022-09-15T23:07:07.375Z,38.80
2022-09-15T23:09:34.324Z,39.00
2022-09-15T23:12:01.120Z,39.00
2022-09-15T23:14:30.426Z,38.90
2022-09-15T23:16:57.532Z,38.80
2022-09-15T23:19:24.196Z,39.00
2022-09-15T23:21:50.874Z,38.80
2022-09-15T23:24:17.517Z,38.60
2022-09-15T23:26:44.171Z,39.00
2022-09-15T23:29:10.872Z,38.90
2022-09-15T23:31:37.603Z,39.10
2022-09-15T23:34:04.658Z,38.80
2022-09-15T23:36:31.361Z,39.10
2022-09-15T23:38:58.466Z,39.40
2022-09-15T23:41:25.221Z,39.80
2022-09-15T23:43:51.909Z,39.80
2022-09-15T23:46:18.632Z,39.50
2022-09-15T23:48:45.369Z,39.70
2022-09-15T23:51:12.077Z,39.70
2022-09-15T23:53:38.819Z,39.80
2022-09-15T23:56:05.830Z,39.80
2022-09-15T23:58:32.532Z,39.90
